sensor_id;sensor_type;location;lat;lon;timestamp;pressure;altitude;pressure_sealevel;temperature;humidity
54910;BME280;63189;51.240;9.964;2023-05-20T00:00:30;98534.72;;;12.52;71.68
54910;BME280;63189;51.240;9.964;2023-05-20T00:02:56;98546.94;;;12.50;72.50
54910;BME280;63189;51.240;9.964;2023-05-20T00:05:22;98545.25;;;12.49;72.04
54910;BME280;63189;51.240;9.964;2023-05-20T00:07:47;98546.94;;;12.51;71.78
54910;BME280;63189;51.240;9.964;2023-05-20T00:10:12;98545.13;;;12.53;71.68
54910;BME280;63189;51.240;9.964;2023-05-20T00:12:38;98534.72;;;12.52;71.96
54910;BME280;63189;51.240;9.964;2023-05-20T00:15:04;98541.66;;;12.53;72.50
54910;BME280;63189;51.240;9.964;2023-05-20T00:17:29;98538.22;;;12.51;72.55
54910;BME280;63189;51.240;9.964;2023-05-20T00:19:55;98535.63;;;12.51;72.20
54910;BME280;63189;51.240;9.964;2023-05-20T00:22:20;98533.84;;;12.51;72.05
54910;BME280;63189;51.240;9.964;2023-05-20T00:24:46;98546.94;;;12.50;73.79
54910;BME280;63189;51.240;9.964;2023-05-20T00:27:11;98531.34;;;12.47;72.97
54910;BME280;63189;51.240;9.964;2023-05-20T00:29:36;98537.41;;;12.49;73.19
54910;BME280;63189;51.240;9.964;2023-05-20T00:32:02;98522.59;;;12.48;73.57
54910;BME280;63189;51.240;9.964;2023-05-20T00:34:27;98534.78;;;12.49;73.68
54910;BME280;63189;51.240;9.964;2023-05-20T00:36:52;98532.25;;;12.46;73.53
54910;BME280;63189;51.240;9.964;2023-05-20T00:39:18;98534.88;;;12.46;72.97
54910;BME280;63189;51.240;9.964;2023-05-20T00:41:43;98518.34;;;12.45;73.24
54910;BME280;63189;51.240;9.964;2023-05-20T00:44:08;98533.06;;;12.48;72.78
54910;BME280;63189;51.240;9.964;2023-05-20T00:46:34;98529.53;;;12.49;72.90
54910;BME280;63189;51.240;9.964;2023-05-20T00:49:00;98525.22;;;12.48;72.97
54910;BME280;63189;51.240;9.964;2023-05-20T00:51:25;98522.66;;;12.46;73.19
54910;BME280;63189;51.240;9.964;2023-05-20T00:53:51;98522.81;;;12.41;73.52
54910;BME280;63189;51.240;9.964;2023-05-20T00:56:16;98515.88;;;12.39;73.98
54910;BME280;63189;51.240;9.964;2023-05-20T00:58:41;98503.75;;;12.36;74.27
54910;BME280;63189;51.240;9.964;2023-05-20T01:01:07;98514.13;;;12.39;73.84
54910;BME280;63189;51.240;9.964;2023-05-20T01:03:32;98512.47;;;12.37;74.46
54910;BME280;63189;51.240;9.964;2023-05-20T01:05:58;98515.97;;;12.36;75.02
54910;BME280;63189;51.240;9.964;2023-05-20T01:08:24;98523.06;;;12.32;74.95
54910;BME280;63189;51.240;9.964;2023-05-20T01:11:05;98519.53;;;12.33;74.71
54910;BME280;63189;51.240;9.964;2023-05-20T01:13:55;98521.34;;;12.31;75.55
54910;BME280;63189;51.240;9.964;2023-05-20T01:16:23;98517.94;;;12.28;74.93
54910;BME280;63189;51.240;9.964;2023-05-20T01:18:51;98519.63;;;12.30;74.90
54910;BME280;63189;51.240;9.964;2023-05-20T01:21:19;98517.88;;;12.31;75.50
54910;BME280;63189;51.240;9.964;2023-05-20T01:23:46;98508.38;;;12.27;76.09
54910;BME280;63189;51.240;9.964;2023-05-20T01:26:12;98507.63;;;12.23;75.96
54910;BME280;63189;51.240;9.964;2023-05-20T01:28:38;98510.34;;;12.20;75.71
54910;BME280;63189;51.240;9.964;2023-05-20T01:31:07;98512.97;;;12.20;75.58
54910;BME280;63189;51.240;9.964;2023-05-20T01:33:35;98512.00;;;12.23;75.71
54910;BME280;63189;51.240;9.964;2023-05-20T01:36:02;98504.16;;;12.23;76.15
54910;BME280;63189;51.240;9.964;2023-05-20T01:38:29;98501.66;;;12.20;76.15
54910;BME280;63189;51.240;9.964;2023-05-20T01:40:56;98509.44;;;12.21;76.00
54910;BME280;63189;51.240;9.964;2023-05-20T01:43:23;98503.31;;;12.22;75.91
54910;BME280;63189;51.240;9.964;2023-05-20T01:45:49;98499.88;;;12.20;76.70
54910;BME280;63189;51.240;9.964;2023-05-20T01:48:14;98489.44;;;12.20;76.64
54910;BME280;63189;51.240;9.964;2023-05-20T01:50:41;98497.28;;;12.19;76.34
54910;BME280;63189;51.240;9.964;2023-05-20T01:53:07;98498.13;;;12.19;76.26
54910;BME280;63189;51.240;9.964;2023-05-20T01:55:34;98495.63;;;12.16;76.25
54910;BME280;63189;51.240;9.964;2023-05-20T01:57:59;98499.13;;;12.15;77.15
54910;BME280;63189;51.240;9.964;2023-05-20T02:00:24;98499.13;;;12.15;77.08
54910;BME280;63189;51.240;9.964;2023-05-20T02:02:50;98492.19;;;12.14;77.19
54910;BME280;63189;51.240;9.964;2023-05-20T02:05:15;98496.56;;;12.13;77.63
54910;BME280;63189;51.240;9.964;2023-05-20T02:07:41;98503.50;;;12.14;77.73
54910;BME280;63189;51.240;9.964;2023-05-20T02:10:06;98494.13;;;12.07;77.67
54910;BME280;63189;51.240;9.964;2023-05-20T02:12:32;98489.78;;;12.06;77.54
54910;BME280;63189;51.240;9.964;2023-05-20T02:14:57;98491.44;;;12.10;77.39
54910;BME280;63189;51.240;9.964;2023-05-20T02:17:22;98492.28;;;12.11;77.57
54910;BME280;63189;51.240;9.964;2023-05-20T02:19:48;98494.06;;;12.10;77.65
54910;BME280;63189;51.240;9.964;2023-05-20T02:22:13;98490.59;;;12.08;78.37
54910;BME280;63189;51.240;9.964;2023-05-20T02:24:39;98489.75;;;12.08;78.54
54910;BME280;63189;51.240;9.964;2023-05-20T02:27:04;98483.72;;;12.06;78.72
54910;BME280;63189;51.240;9.964;2023-05-20T02:29:30;98483.75;;;12.04;78.97
54910;BME280;63189;51.240;9.964;2023-05-20T02:31:56;98494.25;;;12.03;79.10
54910;BME280;63189;51.240;9.964;2023-05-20T02:34:21;98491.75;;;12.00;79.12
54910;BME280;63189;51.240;9.964;2023-05-20T02:36:46;98484.81;;;11.99;79.65
54910;BME280;63189;51.240;9.964;2023-05-20T02:39:12;98492.63;;;11.99;78.97
54910;BME280;63189;51.240;9.964;2023-05-20T02:41:37;98489.13;;;11.98;79.30
54910;BME280;63189;51.240;9.964;2023-05-20T02:44:03;98489.19;;;11.97;79.56
54910;BME280;63189;51.240;9.964;2023-05-20T02:46:28;98483.09;;;11.96;80.71
54910;BME280;63189;51.240;9.964;2023-05-20T02:48:53;98487.47;;;11.96;80.11
54910;BME280;63189;51.240;9.964;2023-05-20T02:51:18;98486.63;;;11.95;80.61
54910;BME280;63189;51.240;9.964;2023-05-20T02:53:44;98484.97;;;11.93;79.99
54910;BME280;63189;51.240;9.964;2023-05-20T02:56:10;98484.16;;;11.91;80.74
54910;BME280;63189;51.240;9.964;2023-05-20T02:58:35;98487.66;;;11.90;81.02
54910;BME280;63189;51.240;9.964;2023-05-20T03:01:01;98494.59;;;11.91;80.94
54910;BME280;63189;51.240;9.964;2023-05-20T03:03:28;98491.19;;;11.89;80.79
54910;BME280;63189;51.240;9.964;2023-05-20T03:05:53;98488.50;;;11.90;80.94
54910;BME280;63189;51.240;9.964;2023-05-20T03:08:20;98492.03;;;11.89;80.71
54910;BME280;63189;51.240;9.964;2023-05-20T03:10:46;98491.25;;;11.85;81.68
54910;BME280;63189;51.240;9.964;2023-05-20T03:13:11;98480.78;;;11.85;81.50
54910;BME280;63189;51.240;9.964;2023-05-20T03:15:40;98492.03;;;11.89;81.40
54910;BME280;63189;51.240;9.964;2023-05-20T03:18:06;98486.00;;;11.85;81.31
54910;BME280;63189;51.240;9.964;2023-05-20T03:20:33;98487.78;;;11.85;81.53
54910;BME280;63189;51.240;9.964;2023-05-20T03:23:01;98479.97;;;11.83;81.75
54910;BME280;63189;51.240;9.964;2023-05-20T03:25:26;98486.09;;;11.82;81.79
54910;BME280;63189;51.240;9.964;2023-05-20T03:27:52;98486.22;;;11.76;82.44
54910;BME280;63189;51.240;9.964;2023-05-20T03:30:17;98477.53;;;11.76;82.88
54910;BME280;63189;51.240;9.964;2023-05-20T03:32:43;98468.84;;;11.75;82.31
54910;BME280;63189;51.240;9.964;2023-05-20T03:35:09;98474.97;;;11.74;82.51
54910;BME280;63189;51.240;9.964;2023-05-20T03:37:35;98476.81;;;11.71;83.05
54910;BME280;63189;51.240;9.964;2023-05-20T03:40:02;98475.28;;;11.62;83.86
54910;BME280;63189;51.240;9.964;2023-05-20T03:42:31;98481.47;;;11.60;84.42
54910;BME280;63189;51.240;9.964;2023-05-20T03:44:56;98476.28;;;11.58;84.14
54910;BME280;63189;51.240;9.964;2023-05-20T03:47:22;98488.59;;;11.53;84.75
54910;BME280;63189;51.240;9.964;2023-05-20T03:49:47;98481.75;;;11.49;84.56
54910;BME280;63189;51.240;9.964;2023-05-20T03:52:12;98480.84;;;11.50;84.84
54910;BME280;63189;51.240;9.964;2023-05-20T03:54:38;98484.31;;;11.50;85.88
54910;BME280;63189;51.240;9.964;2023-05-20T03:57:04;98483.44;;;11.50;84.97
54910;BME280;63189;51.240;9.964;2023-05-20T03:59:29;98482.59;;;11.49;85.81
54910;BME280;63189;51.240;9.964;2023-05-20T04:01:55;98478.38;;;11.44;86.23
54910;BME280;63189;51.240;9.964;2023-05-20T04:04:21;98476.66;;;11.43;86.18
54910;BME280;63189;51.240;9.964;2023-05-20T04:06:46;98487.06;;;11.44;85.85
54910;BME280;63189;51.240;9.964;2023-05-20T04:09:11;98488.81;;;11.44;86.94
54910;BME280;63189;51.240;9.964;2023-05-20T04:11:37;98477.47;;;11.45;86.39
54910;BME280;63189;51.240;9.964;2023-05-20T04:14:03;98483.53;;;11.47;86.97
54910;BME280;63189;51.240;9.964;2023-05-20T04:16:28;98486.22;;;11.44;87.14
54910;BME280;63189;51.240;9.964;2023-05-20T04:18:54;98481.88;;;11.43;86.45
54910;BME280;63189;51.240;9.964;2023-05-20T04:21:19;98481.03;;;11.42;86.87
54910;BME280;63189;51.240;9.964;2023-05-20T04:23:45;98494.09;;;11.42;87.69
54910;BME280;63189;51.240;9.964;2023-05-20T04:26:10;98483.69;;;11.41;87.20
54910;BME280;63189;51.240;9.964;2023-05-20T04:28:37;98476.75;;;11.40;87.68
54910;BME280;63189;51.240;9.964;2023-05-20T04:31:03;98481.06;;;11.41;87.00
54910;BME280;63189;51.240;9.964;2023-05-20T04:33:29;98476.66;;;11.43;87.27
54910;BME280;63189;51.240;9.964;2023-05-20T04:35:56;98476.66;;;11.43;87.68
54910;BME280;63189;51.240;9.964;2023-05-20T04:38:23;98479.22;;;11.44;87.88
54910;BME280;63189;51.240;9.964;2023-05-20T04:40:57;98480.94;;;11.47;87.95
54910;BME280;63189;51.240;9.964;2023-05-20T04:43:26;98491.34;;;11.48;88.26
54910;BME280;63189;51.240;9.964;2023-05-20T04:45:57;98485.25;;;11.48;88.12
54910;BME280;63189;51.240;9.964;2023-05-20T04:48:23;98481.75;;;11.49;88.00
54910;BME280;63189;51.240;9.964;2023-05-20T04:50:49;98482.59;;;11.49;88.25
54910;BME280;63189;51.240;9.964;2023-05-20T04:53:16;98480.03;;;11.48;88.32
54910;BME280;63189;51.240;9.964;2023-05-20T04:55:42;98480.88;;;11.48;88.26
54910;BME280;63189;51.240;9.964;2023-05-20T04:58:08;98480.03;;;11.48;88.59
54910;BME280;63189;51.240;9.964;2023-05-20T05:00:40;98484.31;;;11.50;87.60
54910;BME280;63189;51.240;9.964;2023-05-20T05:03:06;98482.66;;;11.48;88.27
54910;BME280;63189;51.240;9.964;2023-05-20T05:05:33;98486.06;;;11.50;88.11
54910;BME280;63189;51.240;9.964;2023-05-20T05:07:59;98471.44;;;11.43;88.11
54910;BME280;63189;51.240;9.964;2023-05-20T05:10:24;98484.41;;;11.46;88.29
54910;BME280;63189;51.240;9.964;2023-05-20T05:12:50;98484.41;;;11.47;88.23
54910;BME280;63189;51.240;9.964;2023-05-20T05:15:15;98481.75;;;11.49;88.38
54910;BME280;63189;51.240;9.964;2023-05-20T05:17:40;98473.16;;;11.44;88.51
54910;BME280;63189;51.240;9.964;2023-05-20T05:20:06;98490.47;;;11.48;88.98
54910;BME280;63189;51.240;9.964;2023-05-20T05:22:32;98480.03;;;11.48;88.74
54910;BME280;63189;51.240;9.964;2023-05-20T05:25:01;98478.31;;;11.47;88.87
54910;BME280;63189;51.240;9.964;2023-05-20T05:27:26;98476.53;;;11.49;88.44
54910;BME280;63189;51.240;9.964;2023-05-20T05:29:52;98480.88;;;11.48;88.58
54910;BME280;63189;51.240;9.964;2023-05-20T05:32:17;98486.03;;;11.51;88.95
54910;BME280;63189;51.240;9.964;2023-05-20T05:34:42;98471.25;;;11.50;88.80
54910;BME280;63189;51.240;9.964;2023-05-20T05:37:08;98478.28;;;11.48;89.18
54910;BME280;63189;51.240;9.964;2023-05-20T05:39:33;98482.69;;;11.46;89.02
54910;BME280;63189;51.240;9.964;2023-05-20T05:42:03;98486.06;;;11.50;89.86
54910;BME280;63189;51.240;9.964;2023-05-20T05:44:29;98485.34;;;11.43;89.50
54910;BME280;63189;51.240;9.964;2023-05-20T05:46:55;98487.03;;;11.46;89.35
54910;BME280;63189;51.240;9.964;2023-05-20T05:49:20;98484.44;;;11.44;89.15
54910;BME280;63189;51.240;9.964;2023-05-20T05:51:45;98488.72;;;11.48;89.23
54910;BME280;63189;51.240;9.964;2023-05-20T05:54:11;98496.50;;;11.50;89.59
54910;BME280;63189;51.240;9.964;2023-05-20T05:56:36;98492.19;;;11.49;89.88
54910;BME280;63189;51.240;9.964;2023-05-20T05:59:01;98486.09;;;11.48;89.94
54910;BME280;63189;51.240;9.964;2023-05-20T06:01:26;98485.22;;;11.49;89.63
54910;BME280;63189;51.240;9.964;2023-05-20T06:03:52;98488.81;;;11.44;90.31
54910;BME280;63189;51.240;9.964;2023-05-20T06:06:17;98487.09;;;11.43;90.12
54910;BME280;63189;51.240;9.964;2023-05-20T06:08:43;98480.94;;;11.45;89.87
54910;BME280;63189;51.240;9.964;2023-05-20T06:11:08;98482.78;;;11.42;90.83
54910;BME280;63189;51.240;9.964;2023-05-20T06:13:36;98481.78;;;11.46;90.42
54910;BME280;63189;51.240;9.964;2023-05-20T06:16:02;98484.41;;;11.47;90.48
54910;BME280;63189;51.240;9.964;2023-05-20T06:18:27;98480.94;;;11.47;90.31
54910;BME280;63189;51.240;9.964;2023-05-20T06:20:56;98473.09;;;11.47;90.95
54910;BME280;63189;51.240;9.964;2023-05-20T06:23:22;98468.63;;;11.50;91.14
54910;BME280;63189;51.240;9.964;2023-05-20T06:25:47;98479.94;;;11.51;91.28
54910;BME280;63189;51.240;9.964;2023-05-20T06:28:13;98478.22;;;11.50;91.08
54910;BME280;63189;51.240;9.964;2023-05-20T06:30:40;98485.25;;;11.48;91.89
54910;BME280;63189;51.240;9.964;2023-05-20T06:33:05;98480.88;;;11.48;91.15
54910;BME280;63189;51.240;9.964;2023-05-20T06:35:37;98474.81;;;11.48;91.80
54910;BME280;63189;51.240;9.964;2023-05-20T06:38:15;98479.97;;;11.49;91.17
54910;BME280;63189;51.240;9.964;2023-05-20T06:40:52;98478.22;;;11.50;91.37
54910;BME280;63189;51.240;9.964;2023-05-20T06:43:22;98456.63;;;11.43;91.56
54910;BME280;63189;51.240;9.964;2023-05-20T06:46:19;98442.06;;;11.35;92.83
54910;BME280;63189;51.240;9.964;2023-05-20T06:49:13;98438.72;;;11.30;92.09
54910;BME280;63189;51.240;9.964;2023-05-20T06:51:49;98435.31;;;11.27;92.65
54910;BME280;63189;51.240;9.964;2023-05-20T06:54:15;98456.81;;;11.37;91.82
54910;BME280;63189;51.240;9.964;2023-05-20T06:56:40;98443.03;;;11.31;91.68
54910;BME280;63189;51.240;9.964;2023-05-20T06:59:06;98457.53;;;11.42;91.94
54910;BME280;63189;51.240;9.964;2023-05-20T07:01:32;98446.97;;;11.47;92.03
54910;BME280;63189;51.240;9.964;2023-05-20T07:03:57;98464.38;;;11.48;92.67
54910;BME280;63189;51.240;9.964;2023-05-20T07:06:22;98462.72;;;11.44;93.13
54910;BME280;63189;51.240;9.964;2023-05-20T07:08:48;98464.50;;;11.42;93.37
54910;BME280;63189;51.240;9.964;2023-05-20T07:11:13;98453.97;;;11.45;93.07
54910;BME280;63189;51.240;9.964;2023-05-20T07:13:38;98452.22;;;11.47;92.89
54910;BME280;63189;51.240;9.964;2023-05-20T07:16:04;98451.22;;;11.51;92.59
54910;BME280;63189;51.240;9.964;2023-05-20T07:18:29;98443.38;;;11.51;92.55
54910;BME280;63189;51.240;9.964;2023-05-20T07:20:55;98454.59;;;11.54;93.31
54910;BME280;63189;51.240;9.964;2023-05-20T07:23:23;98452.78;;;11.58;92.37
54910;BME280;63189;51.240;9.964;2023-05-20T07:25:48;98447.56;;;11.56;92.77
54910;BME280;63189;51.240;9.964;2023-05-20T07:28:16;98446.66;;;11.59;93.11
54910;BME280;63189;51.240;9.964;2023-05-20T07:30:42;98451.06;;;11.57;93.57
54910;BME280;63189;51.240;9.964;2023-05-20T07:33:10;98452.78;;;11.58;92.72
54910;BME280;63189;51.240;9.964;2023-05-20T07:35:36;98451.88;;;11.59;93.36
54910;BME280;63189;51.240;9.964;2023-05-20T07:38:01;98452.72;;;11.60;92.60
54910;BME280;63189;51.240;9.964;2023-05-20T07:40:28;98450.94;;;11.62;92.72
54910;BME280;63189;51.240;9.964;2023-05-20T07:42:53;98447.41;;;11.63;92.99
54910;BME280;63189;51.240;9.964;2023-05-20T07:45:18;98446.66;;;11.59;93.00
54910;BME280;63189;51.240;9.964;2023-05-20T07:47:43;98439.63;;;11.61;92.97
54910;BME280;63189;51.240;9.964;2023-05-20T07:50:09;98437.91;;;11.60;93.74
54910;BME280;63189;51.240;9.964;2023-05-20T07:52:35;98443.16;;;11.60;92.72
54910;BME280;63189;51.240;9.964;2023-05-20T07:55:01;98439.50;;;11.66;93.69
54910;BME280;63189;51.240;9.964;2023-05-20T07:57:27;98435.00;;;11.71;93.46
54910;BME280;63189;51.240;9.964;2023-05-20T07:59:53;98448.84;;;11.74;93.48
54910;BME280;63189;51.240;9.964;2023-05-20T08:02:18;98435.69;;;11.77;92.76
54910;BME280;63189;51.240;9.964;2023-05-20T08:04:43;98450.50;;;11.78;93.61
54910;BME280;63189;51.240;9.964;2023-05-20T08:07:09;98448.94;;;11.71;93.54
54910;BME280;63189;51.240;9.964;2023-05-20T08:09:34;98443.75;;;11.70;93.06
54910;BME280;63189;51.240;9.964;2023-05-20T08:11:59;98448.19;;;11.66;94.02
54910;BME280;63189;51.240;9.964;2023-05-20T08:14:25;98437.72;;;11.66;94.17
54910;BME280;63189;51.240;9.964;2023-05-20T08:16:50;98438.59;;;11.67;94.13
54910;BME280;63189;51.240;9.964;2023-05-20T08:19:15;98446.28;;;11.73;93.18
54910;BME280;63189;51.240;9.964;2023-05-20T08:21:40;98430.69;;;11.70;93.63
54910;BME280;63189;51.240;9.964;2023-05-20T08:24:06;98440.03;;;11.80;94.27
54910;BME280;63189;51.240;9.964;2023-05-20T08:26:32;98420.66;;;11.87;93.58
54910;BME280;63189;51.240;9.964;2023-05-20T08:28:57;98415.34;;;11.90;93.59
54910;BME280;63189;51.240;9.964;2023-05-20T08:31:22;98424.84;;;11.93;93.25
54910;BME280;63189;51.240;9.964;2023-05-20T08:33:48;98420.34;;;11.98;92.98
54910;BME280;63189;51.240;9.964;2023-05-20T08:36:13;98422.69;;;12.07;92.54
54910;BME280;63189;51.240;9.964;2023-05-20T08:38:38;98411.97;;;12.16;92.07
54910;BME280;63189;51.240;9.964;2023-05-20T08:41:04;98410.09;;;12.21;91.68
54910;BME280;63189;51.240;9.964;2023-05-20T08:43:29;98407.22;;;12.30;91.13
54910;BME280;63189;51.240;9.964;2023-05-20T08:45:56;98413.03;;;12.38;90.77
54910;BME280;63189;51.240;9.964;2023-05-20T08:48:23;98398.19;;;12.39;90.64
54910;BME280;63189;51.240;9.964;2023-05-20T08:50:50;98412.06;;;12.42;90.05
54910;BME280;63189;51.240;9.964;2023-05-20T08:53:17;98412.91;;;12.43;89.83
54910;BME280;63189;51.240;9.964;2023-05-20T08:55:45;98405.16;;;12.40;90.19
54910;BME280;63189;51.240;9.964;2023-05-20T08:58:14;98412.75;;;12.48;90.05
54910;BME280;63189;51.240;9.964;2023-05-20T09:00:39;98415.31;;;12.51;89.27
54910;BME280;63189;51.240;9.964;2023-05-20T09:03:06;98421.97;;;12.59;89.79
54910;BME280;63189;51.240;9.964;2023-05-20T09:05:31;98405.38;;;12.60;89.19
54910;BME280;63189;51.240;9.964;2023-05-20T09:10:31;98396.91;;;12.80;87.79
54910;BME280;63189;51.240;9.964;2023-05-20T09:12:59;98388.69;;;12.92;87.75
54910;BME280;63189;51.240;9.964;2023-05-20T09:15:25;98383.09;;;13.03;86.02
54910;BME280;63189;51.240;9.964;2023-05-20T09:17:53;98392.16;;;13.18;86.85
54910;BME280;63189;51.240;9.964;2023-05-20T09:20:20;98397.72;;;13.35;84.57
54910;BME280;63189;51.240;9.964;2023-05-20T09:22:50;98397.03;;;13.55;84.40
54910;BME280;63189;51.240;9.964;2023-05-20T09:25:21;98400.06;;;13.68;83.13
54910;BME280;63189;51.240;9.964;2023-05-20T09:27:47;98401.53;;;13.75;83.10
54910;BME280;63189;51.240;9.964;2023-05-20T09:30:13;98399.84;;;13.74;82.25
54910;BME280;63189;51.240;9.964;2023-05-20T09:32:38;98402.97;;;13.83;82.17
54910;BME280;63189;51.240;9.964;2023-05-20T09:35:04;98394.13;;;13.88;81.64
54910;BME280;63189;51.240;9.964;2023-05-20T09:37:33;98388.53;;;13.97;81.92
54910;BME280;63189;51.240;9.964;2023-05-20T09:40:00;98387.50;;;14.01;81.30
54910;BME280;63189;51.240;9.964;2023-05-20T09:42:37;98377.81;;;14.03;81.19
54910;BME280;63189;51.240;9.964;2023-05-20T09:45:05;98388.41;;;14.00;80.07
54910;BME280;63189;51.240;9.964;2023-05-20T09:47:34;98384.81;;;14.02;80.03
54910;BME280;63189;51.240;9.964;2023-05-20T09:50:02;98385.59;;;14.04;80.24
54910;BME280;63189;51.240;9.964;2023-05-20T09:52:27;98389.72;;;14.11;80.88
54910;BME280;63189;51.240;9.964;2023-05-20T09:54:53;98394.84;;;14.14;80.31
54910;BME280;63189;51.240;9.964;2023-05-20T09:57:20;98398.25;;;14.16;80.49
54910;BME280;63189;51.240;9.964;2023-05-20T09:59:46;98389.50;;;14.18;79.96
54910;BME280;63189;51.240;9.964;2023-05-20T10:02:12;98404.13;;;14.23;79.96
54910;BME280;63189;51.240;9.964;2023-05-20T10:04:43;98400.88;;;14.16;78.79
54910;BME280;63189;51.240;9.964;2023-05-20T10:07:37;98396.66;;;14.12;79.50
54910;BME280;63189;51.240;9.964;2023-05-20T10:12:47;98399.41;;;14.09;79.45
54910;BME280;63189;51.240;9.964;2023-05-20T10:15:21;98373.34;;;14.05;79.39
54910;BME280;63189;51.240;9.964;2023-05-20T10:18:20;98388.22;;;14.04;79.13
54910;BME280;63189;51.240;9.964;2023-05-20T10:20:49;98386.06;;;14.15;80.47
54910;BME280;63189;51.240;9.964;2023-05-20T10:23:29;98384.41;;;14.13;79.07
54910;BME280;63189;51.240;9.964;2023-05-20T10:25:56;98381.78;;;14.13;79.75
54910;BME280;63189;51.240;9.964;2023-05-20T10:28:33;98377.66;;;14.07;78.96
54910;BME280;63189;51.240;9.964;2023-05-20T10:31:00;98370.63;;;14.08;79.51
54910;BME280;63189;51.240;9.964;2023-05-20T10:33:26;98367.03;;;14.10;79.58
54910;BME280;63189;51.240;9.964;2023-05-20T10:35:53;98365.31;;;14.09;80.02
54910;BME280;63189;51.240;9.964;2023-05-20T10:38:19;98359.03;;;14.13;81.07
54910;BME280;63189;51.240;9.964;2023-05-20T10:40:45;98364.06;;;14.20;80.63
54910;BME280;63189;51.240;9.964;2023-05-20T10:43:16;98355.41;;;14.18;79.87
54910;BME280;63189;51.240;9.964;2023-05-20T10:45:53;98351.03;;;14.16;79.40
54910;BME280;63189;51.240;9.964;2023-05-20T10:48:28;98353.31;;;14.26;79.59
54910;BME280;63189;51.240;9.964;2023-05-20T10:50:55;98347.91;;;14.30;79.30
54910;BME280;63189;51.240;9.964;2023-05-20T10:53:25;98347.72;;;14.35;79.41
54910;BME280;63189;51.240;9.964;2023-05-20T10:55:52;98347.59;;;14.38;78.32
54910;BME280;63189;51.240;9.964;2023-05-20T10:58:22;98345.56;;;14.46;78.87
54910;BME280;63189;51.240;9.964;2023-05-20T11:00:49;98343.53;;;14.53;80.25
54910;BME280;63189;51.240;9.964;2023-05-20T11:03:15;98349.19;;;14.42;78.48
54910;BME280;63189;51.240;9.964;2023-05-20T11:05:43;98352.41;;;14.50;79.42
54910;BME280;63189;51.240;9.964;2023-05-20T11:08:09;98343.41;;;14.56;78.70
54910;BME280;63189;51.240;9.964;2023-05-20T11:10:37;98347.88;;;14.54;78.27
54910;BME280;63189;51.240;9.964;2023-05-20T11:13:03;98354.69;;;14.58;78.69
54910;BME280;63189;51.240;9.964;2023-05-20T11:15:30;98356.38;;;14.60;77.99
54910;BME280;63189;51.240;9.964;2023-05-20T11:17:59;98355.25;;;14.66;78.16
54910;BME280;63189;51.240;9.964;2023-05-20T11:20:25;98351.78;;;14.65;80.04
54910;BME280;63189;51.240;9.964;2023-05-20T11:22:51;98346.22;;;14.73;79.39
54910;BME280;63189;51.240;9.964;2023-05-20T11:25:17;98343.53;;;14.75;78.66
54910;BME280;63189;51.240;9.964;2023-05-20T11:27:44;98337.66;;;14.68;77.95
54910;BME280;63189;51.240;9.964;2023-05-20T11:30:12;98334.88;;;14.72;78.40
54910;BME280;63189;51.240;9.964;2023-05-20T11:32:41;98339.97;;;14.76;78.01
54910;BME280;63189;51.240;9.964;2023-05-20T11:35:07;98339.06;;;14.77;78.06
54910;BME280;63189;51.240;9.964;2023-05-20T11:37:35;98344.44;;;14.73;77.28
54910;BME280;63189;51.240;9.964;2023-05-20T11:40:07;98333.94;;;14.73;77.18
54910;BME280;63189;51.240;9.964;2023-05-20T11:42:33;98340.06;;;14.74;78.93
54910;BME280;63189;51.240;9.964;2023-05-20T11:45:02;98339.84;;;14.79;78.40
54910;BME280;63189;51.240;9.964;2023-05-20T11:47:27;98341.69;;;14.77;78.49
54910;BME280;63189;51.240;9.964;2023-05-20T11:49:52;98339.19;;;14.73;78.36
54910;BME280;63189;51.240;9.964;2023-05-20T11:52:19;98340.25;;;14.69;78.82
54910;BME280;63189;51.240;9.964;2023-05-20T11:54:51;98335.84;;;14.70;78.90
54910;BME280;63189;51.240;9.964;2023-05-20T11:57:18;98332.91;;;14.56;78.26
54910;BME280;63189;51.240;9.964;2023-05-20T11:59:43;98338.91;;;14.59;78.59
54910;BME280;63189;51.240;9.964;2023-05-20T12:02:08;98322.44;;;14.56;79.42
54910;BME280;63189;51.240;9.964;2023-05-20T12:04:34;98333.78;;;14.56;79.38
54910;BME280;63189;51.240;9.964;2023-05-20T12:06:59;98332.19;;;14.52;79.22
54910;BME280;63189;51.240;9.964;2023-05-20T12:09:25;98331.34;;;14.52;78.89
54910;BME280;63189;51.240;9.964;2023-05-20T12:11:50;98329.66;;;14.51;78.97
54910;BME280;63189;51.240;9.964;2023-05-20T12:14:16;98340.25;;;14.48;78.81
54910;BME280;63189;51.240;9.964;2023-05-20T12:16:41;98331.69;;;14.42;78.09
54910;BME280;63189;51.240;9.964;2023-05-20T12:19:07;98324.91;;;14.37;79.08
54910;BME280;63189;51.240;9.964;2023-05-20T12:21:33;98325.94;;;14.33;78.77
54910;BME280;63189;51.240;9.964;2023-05-20T12:23:59;98328.38;;;14.37;78.85
54910;BME280;63189;51.240;9.964;2023-05-20T12:26:28;98330.09;;;14.38;79.33
54910;BME280;63189;51.240;9.964;2023-05-20T12:28:54;98324.72;;;14.41;79.05
54910;BME280;63189;51.240;9.964;2023-05-20T12:31:20;98313.47;;;14.38;79.26
54910;BME280;63189;51.240;9.964;2023-05-20T12:33:45;98305.50;;;14.41;79.67
54910;BME280;63189;51.240;9.964;2023-05-20T12:36:11;98309.84;;;14.42;80.35
54910;BME280;63189;51.240;9.964;2023-05-20T12:38:37;98303.88;;;14.38;81.11
54910;BME280;63189;51.240;9.964;2023-05-20T12:41:03;98302.13;;;14.37;80.75
54910;BME280;63189;51.240;9.964;2023-05-20T12:43:29;98307.28;;;14.40;80.36
54910;BME280;63189;51.240;9.964;2023-05-20T12:45:54;98307.97;;;14.46;80.55
54910;BME280;63189;51.240;9.964;2023-05-20T12:48:20;98303.47;;;14.49;79.98
54910;BME280;63189;51.240;9.964;2023-05-20T12:50:46;98293.63;;;14.54;80.07
54910;BME280;63189;51.240;9.964;2023-05-20T12:53:12;98294.16;;;14.62;80.64
54910;BME280;63189;51.240;9.964;2023-05-20T12:55:37;98288.19;;;14.59;81.61
54910;BME280;63189;51.240;9.964;2023-05-20T12:58:03;98297.28;;;14.72;81.84
54910;BME280;63189;51.240;9.964;2023-05-20T13:00:28;98292.03;;;14.72;80.59
54910;BME280;63189;51.240;9.964;2023-05-20T13:02:54;98293.59;;;14.76;80.97